Time;durP1;ratioP1;P1;durP2;ratioP2;P2;SDS_P1;SDS_P2;PMS_P1;PMS_P2;Temp;Humidity;BMP_temperature;BMP_pressure;BME280_temperature;BME280_humidity;BME280_pressure;Samples;Min_cycle;Max_cycle;Signal;HPM_P1;HPM_P2
2021/08/02 00:01:24;;;;;;;15.65;8.95;;;;;;;23.23;63.11;99146.94;3312523;29;20504;-74
2021/08/02 00:03:17;;;;;;;15.50;8.85;;;;;;;23.22;63.71;99131.72;3324581;29;20060;-72
2021/08/02 00:05:02;;;;;;;9.93;8.88;;;;;;;23.23;64.01;99136.06;3313694;29;20066;-75
2021/08/02 00:06:49;;;;;;;11.07;8.63;;;;;;;23.24;63.78;99136.88;3316914;29;20503;-73
2021/08/02 00:08:30;;;;;;;13.98;10.50;;;;;;;23.24;64.11;99136.88;3326655;29;20050;-74
2021/08/02 00:10:15;;;;;;;11.17;9.20;;;;;;;23.24;64.43;99134.94;3313201;29;20050;-77
2021/08/02 00:12:11;;;;;;;12.40;9.45;;;;;;;23.26;64.20;99135.47;3312842;29;20696;-76
2021/08/02 00:13:52;;;;;;;12.32;8.85;;;;;;;23.24;63.71;99115.13;3312726;29;20511;-75
2021/08/02 00:15:33;;;;;;;12.15;9.48;;;;;;;23.26;64.10;99107.47;3312745;29;20050;-74
2021/08/02 00:17:13;;;;;;;11.07;9.43;;;;;;;23.25;63.60;99114.00;3312687;29;20047;-73
2021/08/02 00:18:55;;;;;;;11.88;9.10;;;;;;;23.24;64.03;99115.13;3312799;29;20066;-74
2021/08/02 00:20:36;;;;;;;9.67;8.67;;;;;;;23.25;63.87;99122.16;3324274;29;20082;-75
2021/08/02 00:22:17;;;;;;;10.23;9.23;;;;;;;23.25;63.92;99127.59;3315334;29;20415;-75
2021/08/02 00:23:58;;;;;;;10.18;9.10;;;;;;;23.24;63.74;99117.84;3312741;29;20451;-75
2021/08/02 00:25:39;;;;;;;24.00;9.23;;;;;;;23.23;63.76;99121.63;3312660;29;20046;-74
2021/08/02 00:27:20;;;;;;;22.07;8.90;;;;;;;23.24;63.24;99113.19;3312851;29;20050;-74
2021/08/02 00:29:00;;;;;;;9.77;7.87;;;;;;;23.23;62.85;99110.75;3312748;29;20055;-75
2021/08/02 00:30:41;;;;;;;11.43;7.80;;;;;;;23.24;63.08;99106.97;3312269;29;20046;-74
2021/08/02 00:32:22;;;;;;;9.27;8.13;;;;;;;23.26;62.61;99116.44;3312615;29;20050;-74
2021/08/02 00:34:03;;;;;;;10.27;8.63;;;;;;;23.26;62.54;99104.75;3312608;29;20070;-75
2021/08/02 00:35:52;;;;;;;11.00;8.23;;;;;;;23.27;62.48;99104.44;3312662;29;20065;-74
2021/08/02 00:37:40;;;;;;;11.40;8.63;;;;;;;23.28;62.32;99102.53;3311625;29;20145;-74
2021/08/02 00:39:42;;;;;;;10.55;8.00;;;;;;;23.31;62.47;99101.94;3310193;29;20066;-73
2021/08/02 00:41:45;;;;;;;8.65;7.72;;;;;;;23.29;62.24;99099.53;3312408;29;20115;-74
2021/08/02 00:44:03;;;;;;;10.20;8.05;;;;;;;23.32;62.13;99097.34;3324184;29;20042;-74
2021/08/02 00:45:45;;;;;;;9.10;7.53;;;;;;;23.24;62.05;99096.09;3310988;29;20511;-76
2021/08/02 00:47:28;;;;;;;9.52;8.52;;;;;;;23.29;62.11;99106.88;3309405;29;20042;-75
2021/08/02 00:49:10;;;;;;;10.05;8.05;;;;;;;23.29;61.91;99104.97;3312075;29;20045;-74
2021/08/02 00:50:51;;;;;;;10.38;7.13;;;;;;;23.30;62.08;99101.13;3323945;29;20054;-75
2021/08/02 00:52:33;;;;;;;7.90;7.20;;;;;;;23.31;62.56;99101.94;3311384;29;20046;-73
2021/08/02 00:54:15;;;;;;;9.25;8.15;;;;;;;23.30;62.06;99090.25;3321346;29;20523;-75
2021/08/02 00:56:00;;;;;;;9.30;8.30;;;;;;;23.32;62.09;99094.63;3310613;29;20051;-75
2021/08/02 00:57:43;;;;;;;8.50;7.60;;;;;;;23.32;61.77;99087.25;3322070;29;20050;-75
2021/08/02 00:59:27;;;;;;;9.38;8.13;;;;;;;23.33;61.88;99098.94;3323950;29;20069;-74
2021/08/02 01:01:08;;;;;;;11.77;8.60;;;;;;;23.32;62.22;99095.41;3323640;29;20046;-74
2021/08/02 01:02:51;;;;;;;9.57;8.55;;;;;;;23.31;61.85;99101.94;3311474;29;20137;-73
2021/08/02 01:04:33;;;;;;;10.88;8.50;;;;;;;23.30;62.40;99094.91;3296763;29;20566;-74
2021/08/02 01:06:14;;;;;;;;;;;;;;;23.34;62.38;99095.09;3306911;29;20108;-73
2021/08/02 01:08:11;;;;;;;8.77;7.53;;;;;;;23.29;62.39;99088.66;3321723;29;20373;-73
2021/08/02 01:09:54;;;;;;;10.50;7.97;;;;;;;23.27;62.32;99090.84;3324057;29;20135;-75
2021/08/02 01:11:35;;;;;;;10.10;8.43;;;;;;;23.26;62.31;99099.31;3314392;29;20583;-73
2021/08/02 01:13:17;;;;;;;8.65;7.75;;;;;;;23.28;62.29;99100.66;3311283;29;20304;-74
2021/08/02 01:14:58;;;;;;;10.73;8.07;;;;;;;23.28;62.51;99102.53;3321190;29;20047;-75
2021/08/02 01:16:40;;;;;;;8.67;7.77;;;;;;;23.26;62.45;99107.47;3313515;29;20171;-73
2021/08/02 01:18:22;;;;;;;9.20;8.23;;;;;;;23.27;62.29;99107.16;3324051;29;20130;-73
2021/08/02 01:20:06;;;;;;;11.57;8.75;;;;;;;23.27;62.41;99103.66;3313449;29;20059;-73
2021/08/02 01:21:47;;;;;;;9.10;7.57;;;;;;;23.28;62.25;99108.81;3311347;29;20039;-77
2021/08/02 01:23:28;;;;;;;11.73;8.43;;;;;;;23.28;62.20;99103.38;3321557;29;20607;-74
2021/08/02 01:25:36;;;;;;;9.48;7.45;;;;;;;23.31;62.30;99112.81;3324037;29;20046;-73
2021/08/02 01:27:47;;;;;;;7.88;6.90;;;;;;;23.30;62.65;99105.78;3313349;29;20050;-74
2021/08/02 01:30:07;;;;;;;8.27;6.80;;;;;;;23.31;62.31;99112.81;3323936;29;20570;-76
2021/08/02 01:31:49;;;;;;;8.77;7.72;;;;;;;23.29;62.15;99109.63;3323749;29;20079;-74
2021/08/02 01:33:34;;;;;;;9.02;8.10;;;;;;;23.26;62.05;99107.47;3323715;29;20165;-74
2021/08/02 01:35:28;;;;;;;7.63;6.82;;;;;;;23.28;62.52;99114.25;3323961;29;20149;-76
2021/08/02 01:37:10;;;;;;;8.70;7.80;;;;;;;23.29;62.52;99117.78;3323533;29;20094;-73
2021/08/02 01:38:51;;;;;;;8.45;7.57;;;;;;;23.27;62.45;99104.44;3323689;29;20557;-75
2021/08/02 01:40:34;;;;;;;8.35;7.32;;;;;;;23.28;62.13;99108.81;3298424;29;20212;-73
2021/08/02 01:42:16;;;;;;;8.60;7.72;;;;;;;23.30;62.59;99108.50;3313351;29;20542;-73
2021/08/02 01:43:59;;;;;;;9.52;8.52;;;;;;;23.30;62.34;99108.50;3333921;29;20053;-74
2021/08/02 01:46:25;;;;;;;12.67;8.50;;;;;;;23.32;63.00;99102.78;3326446;29;20050;-76
2021/08/02 01:48:34;;;;;;;10.50;7.93;;;;;;;23.29;62.95;99104.16;3302846;29;20046;-75
2021/08/02 01:50:25;;;;;;;10.32;8.68;;;;;;;23.29;62.82;99096.00;3323512;29;20103;-73
2021/08/02 01:52:11;;;;;;;8.93;8.13;;;;;;;23.28;62.80;99097.09;3324249;29;20422;-73
2021/08/02 01:54:21;;;;;;;9.27;8.38;;;;;;;23.28;63.06;99100.66;3311057;29;20047;-74
2021/08/02 01:56:15;;;;;;;9.65;8.63;;;;;;;23.28;62.65;99094.38;3323321;29;20057;-74
2021/08/02 01:58:00;;;;;;;10.30;8.23;;;;;;;23.28;62.50;99097.94;3322838;29;20086;-73
2021/08/02 02:00:12;;;;;;;8.80;7.90;;;;;;;23.29;62.67;99106.88;3312025;29;20039;-73
2021/08/02 02:02:02;;;;;;;9.38;7.25;;;;;;;23.28;62.66;99100.66;3324199;29;20051;-74
2021/08/02 02:03:45;;;;;;;8.77;7.82;;;;;;;23.30;62.59;99097.63;3323490;29;20054;-74
2021/08/02 02:05:32;;;;;;;8.38;7.40;;;;;;;23.30;62.54;99094.91;3321430;29;20054;-74
2021/08/02 02:07:13;;;;;;;8.20;7.32;;;;;;;23.31;62.88;99091.06;3322561;29;20083;-75
2021/08/02 02:09:09;;;;;;;9.43;8.45;;;;;;;23.31;62.87;99082.91;3324742;29;20617;-74
2021/08/02 02:10:54;;;;;;;14.15;9.43;;;;;;;23.31;62.82;99085.63;3336161;29;20060;-74
2021/08/02 02:12:43;;;;;;;9.38;8.38;;;;;;;23.32;62.70;99089.97;3325504;29;20058;-75
2021/08/02 02:14:26;;;;;;;10.15;8.40;;;;;;;23.32;62.95;99086.47;3326492;29;20612;-74
2021/08/02 02:16:08;;;;;;;9.00;7.88;;;;;;;23.33;62.47;99086.16;3325393;29;20080;-71
2021/08/02 02:17:49;;;;;;;8.68;7.80;;;;;;;23.33;62.68;99085.34;3313364;29;20055;-73
2021/08/02 02:19:33;;;;;;;10.00;8.60;;;;;;;23.34;62.84;99076.91;3333399;29;20199;-73
2021/08/02 02:21:23;;;;;;;10.82;8.50;;;;;;;23.33;62.64;99078.00;3313261;29;20092;-73
2021/08/02 02:23:07;;;;;;;9.45;7.82;;;;;;;23.35;62.92;99075.78;3312237;29;20548;-74
2021/08/02 02:24:48;;;;;;;9.67;8.07;;;;;;;23.36;63.02;99068.44;3320931;29;20058;-73
2021/08/02 02:26:32;;;;;;;11.55;9.23;;;;;;;23.36;62.73;99071.97;3310881;29;20043;-74
2021/08/02 02:28:15;;;;;;;9.80;8.88;;;;;;;23.36;62.96;99061.06;3321327;29;20046;-74
2021/08/02 02:29:56;;;;;;;8.93;8.05;;;;;;;23.38;62.72;99056.16;3326437;29;20050;-74
2021/08/02 02:31:41;;;;;;;9.32;7.72;;;;;;;23.39;62.77;99059.69;3325178;29;20057;-74
2021/08/02 02:33:24;;;;;;;8.05;7.25;;;;;;;23.40;63.08;99059.41;3336340;29;20548;-75
2021/08/02 02:35:07;;;;;;;8.25;7.45;;;;;;;23.40;63.00;99053.97;3324952;29;20050;-73
2021/08/02 02:36:50;;;;;;;10.05;8.35;;;;;;;23.40;62.79;99056.69;3323516;29;20494;-74
2021/08/02 02:38:34;;;;;;;9.88;8.88;;;;;;;23.41;63.15;99058.28;3323435;29;20050;-74
2021/08/02 02:40:16;;;;;;;10.63;8.15;;;;;;;23.42;63.29;99064.56;3336132;29;20575;-73
2021/08/02 02:41:59;;;;;;;14.30;8.75;;;;;;;23.41;63.02;99063.72;3338685;29;20061;-75
2021/08/02 02:43:41;;;;;;;9.93;8.25;;;;;;;23.43;62.86;99066.16;3326297;29;20050;-75
2021/08/02 02:45:23;;;;;;;8.55;7.70;;;;;;;23.43;62.65;99066.16;3336207;29;20057;-74
2021/08/02 02:47:04;;;;;;;;;;;;;;;23.49;62.41;99062.25;3315608;29;21298;-73
2021/08/02 02:48:46;;;;;;;12.07;7.78;;;;;;;23.45;62.68;99059.31;3335667;29;19916;-74
2021/08/02 02:50:27;;;;;;;9.15;7.45;;;;;;;23.48;62.71;99060.66;3325342;29;20527;-75
2021/08/02 02:52:09;;;;;;;10.07;8.38;;;;;;;23.49;62.55;99060.38;3322747;29;20142;-73
2021/08/02 02:53:52;;;;;;;8.63;7.80;;;;;;;23.50;62.38;99056.53;3324963;29;20046;-75
2021/08/02 02:55:34;;;;;;;9.35;8.13;;;;;;;23.51;62.70;99052.69;3323099;29;20042;-73
2021/08/02 02:57:17;;;;;;;9.32;8.32;;;;;;;23.55;62.79;99063.81;3310804;29;20058;-74
2021/08/02 02:58:59;;;;;;;10.32;8.15;;;;;;;23.56;62.51;99061.91;3333660;29;20054;-73
2021/08/02 03:00:41;;;;;;;9.20;8.27;;;;;;;23.58;62.44;99067.84;3312527;29;20053;-73
2021/08/02 03:02:22;;;;;;;8.65;7.85;;;;;;;23.59;62.71;99077.63;3332858;29;20077;-74
2021/08/02 03:04:04;;;;;;;10.25;7.65;;;;;;;23.62;62.51;99074.31;3315342;29;20137;-75
2021/08/02 03:05:46;;;;;;;9.73;8.32;;;;;;;23.65;62.54;99073.72;3333277;29;20056;-74
2021/08/02 03:07:29;;;;;;;10.33;9.03;;;;;;;23.68;62.87;99073.13;3325292;29;20525;-73
2021/08/02 03:09:13;;;;;;;11.73;9.55;;;;;;;23.69;63.36;99082.91;3310375;29;20046;-73
2021/08/02 03:10:55;;;;;;;10.88;8.95;;;;;;;23.72;63.51;99087.78;3320480;29;20042;-75
2021/08/02 03:12:36;;;;;;;9.32;7.93;;;;;;;23.72;63.11;99093.22;3310096;29;20104;-76
2021/08/02 03:14:17;;;;;;;8.90;8.00;;;;;;;23.76;62.90;99094.25;3323472;29;20046;-73
2021/08/02 03:15:58;;;;;;;8.83;8.03;;;;;;;23.79;62.92;99099.09;3324907;29;20103;-74
2021/08/02 03:17:38;;;;;;;10.30;8.17;;;;;;;23.80;62.80;99094.47;3325662;29;20391;-72
2021/08/02 03:19:19;;;;;;;10.23;8.80;;;;;;;23.82;62.72;99098.50;3325031;29;20502;-74
2021/08/02 03:21:00;;;;;;;12.47;9.23;;;;;;;23.84;62.96;99100.94;3324769;29;20202;-74
2021/08/02 03:23:16;;;;;;;10.83;8.27;;;;;;;23.88;62.98;99101.94;3325623;29;20043;-73
2021/08/02 03:25:29;;;;;;;12.13;8.90;;;;;;;23.88;62.92;99099.22;3325869;29;20049;-75
2021/08/02 03:27:20;;;;;;;9.10;8.20;;;;;;;23.87;63.00;99103.88;3310098;29;20430;-74
2021/08/02 03:29:17;;;;;;;9.35;8.40;;;;;;;23.87;62.98;99098.41;3325882;29;20056;-74
2021/08/02 03:31:02;;;;;;;9.77;8.48;;;;;;;23.86;62.60;99099.53;3325766;29;20064;-76
2021/08/02 03:32:45;;;;;;;12.85;8.30;;;;;;;23.86;62.80;99102.25;3324657;29;20050;-75
2021/08/02 03:34:28;;;;;;;8.75;7.80;;;;;;;23.85;62.67;99106.09;3324912;29;20415;-75
2021/08/02 03:36:12;;;;;;;9.05;8.05;;;;;;;23.82;62.63;99095.78;3325545;29;20437;-75
2021/08/02 03:37:53;;;;;;;12.43;9.30;;;;;;;23.84;62.82;99104.47;3325604;29;20432;-76
2021/08/02 03:39:35;;;;;;;10.57;8.43;;;;;;;23.82;62.56;99101.22;3324641;29;20054;-75
2021/08/02 03:41:18;;;;;;;9.15;7.90;;;;;;;23.80;62.38;99098.00;3322084;29;20296;-76
2021/08/02 03:42:59;;;;;;;8.43;7.32;;;;;;;23.82;61.92;99106.66;3335291;29;20529;-74
2021/08/02 03:44:40;;;;;;;10.93;8.40;;;;;;;23.84;62.26;99109.09;3324473;29;20047;-74
2021/08/02 03:46:21;;;;;;;10.38;7.70;;;;;;;23.84;61.50;99104.47;3309656;29;20047;-75
2021/08/02 03:48:03;;;;;;;9.50;8.40;;;;;;;23.87;61.46;99116.66;3319729;29;20506;-76
2021/08/02 03:49:43;;;;;;;10.73;8.15;;;;;;;23.90;61.62;99110.63;3325255;29;20052;-75
2021/08/02 03:51:24;;;;;;;14.00;7.93;;;;;;;23.94;61.20;99115.19;3324593;29;20046;-74
2021/08/02 03:53:05;;;;;;;14.13;7.50;;;;;;;23.95;61.41;99110.53;3325151;29;20529;-73
2021/08/02 03:54:46;;;;;;;12.13;8.57;;;;;;;23.97;61.05;99111.06;3325404;29;20046;-75
2021/08/02 03:56:26;;;;;;;10.60;8.00;;;;;;;23.97;61.14;99105.63;3325463;29;20068;-75
2021/08/02 03:58:07;;;;;;;10.40;7.50;;;;;;;23.99;60.86;99100.69;3324459;29;20042;-75
2021/08/02 03:59:50;;;;;;;9.67;6.93;;;;;;;23.98;60.78;99088.16;3324657;29;20508;-74
2021/08/02 04:01:41;;;;;;;10.63;7.70;;;;;;;24.01;60.88;99086.75;3325263;29;20570;-75
2021/08/02 04:03:22;;;;;;;10.73;8.60;;;;;;;24.04;60.63;99086.19;3324335;29;20537;-74
2021/08/02 04:05:03;;;;;;;11.97;7.97;;;;;;;24.08;60.65;99095.38;3325153;29;20094;-74
2021/08/02 04:06:44;;;;;;;11.55;8.20;;;;;;;24.10;60.30;99095.88;3325365;29;20107;-75
2021/08/02 04:08:26;;;;;;;10.87;7.83;;;;;;;24.15;60.69;99103.97;3324228;29;20042;-75
2021/08/02 04:10:07;;;;;;;10.05;7.47;;;;;;;24.20;60.60;99101.16;3324982;29;20419;-76
2021/08/02 04:11:49;;;;;;;10.57;7.75;;;;;;;24.25;60.48;99087.44;3325583;29;20042;-73
2021/08/02 04:13:30;;;;;;;10.13;7.53;;;;;;;24.29;59.88;99084.91;3325354;29;20046;-75
2021/08/02 04:15:11;;;;;;;11.87;8.07;;;;;;;24.33;59.70;99086.75;3324176;29;20046;-74
2021/08/02 04:16:51;;;;;;;12.18;8.27;;;;;;;24.38;59.67;99094.81;3325021;29;20053;-75
2021/08/02 04:18:32;;;;;;;9.20;7.27;;;;;;;24.43;59.99;99082.22;3325318;29;20137;-76
2021/08/02 04:20:14;;;;;;;9.27;7.13;;;;;;;24.45;59.34;99085.50;3336587;29;20046;-74
2021/08/02 04:21:56;;;;;;;;;;;;;;;24.53;59.42;99082.06;3326969;29;20065;-76
2021/08/02 04:23:37;;;;;;;7.25;6.30;;;;;;;24.49;58.97;99079.13;3324799;29;19924;-74
2021/08/02 04:25:18;;;;;;;9.80;7.23;;;;;;;24.52;58.94;99075.00;3325140;29;20534;-75
2021/08/02 04:26:58;;;;;;;11.60;6.87;;;;;;;24.56;58.78;99076.00;3325347;29;20382;-72
2021/08/02 04:28:40;;;;;;;14.60;7.07;;;;;;;24.60;59.11;99071.56;3325168;29;20434;-72
2021/08/02 04:30:21;;;;;;;7.32;6.18;;;;;;;24.63;58.61;99070.97;3324861;29;20046;-72
2021/08/02 04:32:02;;;;;;;8.93;7.22;;;;;;;24.66;58.84;99070.38;3325003;29;20065;-72
2021/08/02 04:33:43;;;;;;;9.88;6.85;;;;;;;24.72;58.43;99073.78;3324800;29;20050;-72
2021/08/02 04:35:24;;;;;;;8.63;6.97;;;;;;;24.77;58.41;99077.22;3325181;29;20153;-75
2021/08/02 04:37:04;;;;;;;10.43;7.63;;;;;;;24.78;58.46;99058.94;3336707;29;20158;-73
2021/08/02 04:38:45;;;;;;;12.47;8.30;;;;;;;24.85;58.30;99058.53;3327268;29;20050;-76
2021/08/02 04:40:26;;;;;;;13.00;6.90;;;;;;;24.88;57.94;99055.19;3325147;29;20046;-74
2021/08/02 04:42:07;;;;;;;11.20;7.30;;;;;;;24.94;58.07;99064.91;3336091;29;20299;-73
2021/08/02 04:43:48;;;;;;;16.85;8.13;;;;;;;24.98;57.64;99068.63;3327204;29;20049;-72
2021/08/02 04:45:28;;;;;;;9.27;6.17;;;;;;;25.02;57.67;99056.00;3336592;29;20090;-74
2021/08/02 04:47:09;;;;;;;9.77;7.03;;;;;;;25.05;57.18;99057.31;3327203;29;20035;-72
2021/08/02 04:48:50;;;;;;;12.10;7.43;;;;;;;25.08;57.30;99059.41;3325055;29;20055;-73
2021/08/02 04:50:30;;;;;;;14.30;7.70;;;;;;;25.10;57.62;99058.00;3324001;29;20149;-75
2021/08/02 04:52:13;;;;;;;16.57;6.80;;;;;;;25.14;57.90;99056.25;3324647;29;20046;-72
2021/08/02 04:53:54;;;;;;;12.35;6.95;;;;;;;25.19;57.55;99055.38;3324979;29;20532;-74
2021/08/02 04:55:35;;;;;;;8.73;6.90;;;;;;;25.23;57.71;99068.09;3325224;29;20103;-72
2021/08/02 04:57:16;;;;;;;17.08;7.47;;;;;;;25.31;57.92;99063.84;3324063;29;20077;-75
2021/08/02 04:58:57;;;;;;;11.57;6.37;;;;;;;25.38;58.55;99066.16;3324723;29;20130;-73
2021/08/02 05:00:37;;;;;;;12.80;7.57;;;;;;;25.45;58.43;99063.78;3324556;29;20134;-72
2021/08/02 05:02:18;;;;;;;10.73;7.17;;;;;;;25.51;58.16;99059.84;3324781;29;20078;-72
2021/08/02 05:03:59;;;;;;;13.87;6.73;;;;;;;25.57;57.81;99055.84;3324938;29;20102;-72
2021/08/02 05:05:39;;;;;;;10.73;7.60;;;;;;;25.64;57.74;99069.88;3324548;29;20081;-70
2021/08/02 05:07:20;;;;;;;12.73;7.33;;;;;;;25.68;57.83;99057.22;3324761;29;20367;-74
2021/08/02 05:09:01;;;;;;;8.35;6.95;;;;;;;25.75;57.48;99056.78;3324775;29;20046;-72
2021/08/02 05:10:42;;;;;;;9.60;6.17;;;;;;;25.78;57.33;99058.09;3324557;29;20463;-70
2021/08/02 05:12:22;;;;;;;11.60;7.53;;;;;;;25.83;56.87;99060.69;3324950;29;20133;-71
2021/08/02 05:14:03;;;;;;;8.97;7.00;;;;;;;25.86;57.32;99055.44;3324686;29;20043;-72
2021/08/02 05:15:44;;;;;;;9.83;7.47;;;;;;;25.91;57.43;99056.44;3324708;29;20056;-74
2021/08/02 05:17:24;;;;;;;10.40;6.43;;;;;;;25.92;57.26;99055.31;3324701;29;20058;-75
2021/08/02 05:19:05;;;;;;;10.30;7.47;;;;;;;25.98;56.99;99056.81;3324612;29;20045;-75
2021/08/02 05:20:46;;;;;;;11.23;6.60;;;;;;;26.02;57.28;99058.63;3324724;29;20422;-71
2021/08/02 05:22:27;;;;;;;10.20;7.17;;;;;;;26.04;57.24;99056.34;3323779;29;20054;-74
2021/08/02 05:24:07;;;;;;;12.73;7.20;;;;;;;26.09;56.73;99060.88;3324368;29;20061;-72
2021/08/02 05:25:48;;;;;;;9.60;7.53;;;;;;;26.13;57.05;99058.34;3336133;29;20046;-72
2021/08/02 05:27:29;;;;;;;10.53;7.53;;;;;;;26.14;56.80;99052.56;3326903;29;20046;-72
2021/08/02 05:29:11;;;;;;;14.88;9.63;;;;;;;26.17;56.86;99048.41;3336066;29;20434;-73
2021/08/02 05:30:51;;;;;;;10.17;8.97;;;;;;;26.21;56.75;99041.19;3326778;29;20095;-74
2021/08/02 05:32:32;;;;;;;12.13;7.80;;;;;;;26.23;56.90;99045.22;3324509;29;20073;-74
2021/08/02 05:34:13;;;;;;;14.30;7.60;;;;;;;26.27;56.79;99046.19;3324227;29;20043;-72
2021/08/02 05:35:54;;;;;;;11.87;8.33;;;;;;;26.31;56.40;99039.00;3324319;29;20046;-74
2021/08/02 05:37:34;;;;;;;15.37;7.40;;;;;;;26.34;57.00;99040.28;3324623;29;20071;-73
2021/08/02 05:39:15;;;;;;;12.53;7.57;;;;;;;26.33;56.43;99038.66;3324676;29;20046;-73
2021/08/02 05:40:56;;;;;;;10.50;7.80;;;;;;;26.40;56.64;99049.94;3324225;29;20058;-75
2021/08/02 05:42:37;;;;;;;9.63;7.50;;;;;;;26.43;56.27;99054.78;3325603;29;20066;-73
2021/08/02 05:44:18;;;;;;;13.45;7.57;;;;;;;26.46;56.34;99056.06;3327101;29;20058;-73
2021/08/02 05:45:58;;;;;;;8.77;7.30;;;;;;;26.45;55.84;99049.81;3327015;29;20502;-74
2021/08/02 05:47:40;;;;;;;8.63;7.73;;;;;;;26.47;55.53;99050.31;3326814;29;20061;-73
2021/08/02 05:49:20;;;;;;;10.88;8.57;;;;;;;26.52;55.36;99044.72;3338166;29;20133;-74
2021/08/02 05:51:02;;;;;;;;;;;;;;;26.62;55.81;99045.56;3329235;29;20106;-73
2021/08/02 05:52:43;;;;;;;8.55;7.68;;;;;;;26.60;55.60;99065.00;3326600;29;20015;-73
2021/08/02 05:54:24;;;;;;;7.70;6.90;;;;;;;26.64;55.24;99054.25;3325675;29;20047;-73
2021/08/02 05:56:05;;;;;;;11.77;8.00;;;;;;;26.69;55.29;99059.56;3326631;29;20061;-72
2021/08/02 05:57:47;;;;;;;8.38;7.10;;;;;;;26.75;55.06;99050.09;3338266;29;20052;-73
2021/08/02 05:59:28;;;;;;;10.15;7.50;;;;;;;26.81;55.06;99053.50;3328758;29;20046;-73
2021/08/02 06:01:09;;;;;;;12.52;7.50;;;;;;;26.84;55.32;99052.84;3326496;29;20119;-73
2021/08/02 06:02:49;;;;;;;9.83;8.07;;;;;;;26.88;55.35;99057.38;3326599;29;20514;-72
2021/08/02 06:04:30;;;;;;;9.00;8.03;;;;;;;26.92;54.98;99055.59;3326478;29;20521;-74
2021/08/02 06:06:11;;;;;;;10.03;8.13;;;;;;;26.96;55.07;99050.31;3326360;29;20052;-75
2021/08/02 06:07:51;;;;;;;11.43;7.43;;;;;;;27.01;55.48;99047.44;3326662;29;20118;-76
2021/08/02 06:09:33;;;;;;;9.03;7.40;;;;;;;27.05;55.43;99044.84;3326565;29;20038;-73
2021/08/02 06:11:13;;;;;;;9.77;8.40;;;;;;;27.11;55.30;99041.66;3326400;29;20506;-74
2021/08/02 06:12:54;;;;;;;9.35;8.15;;;;;;;27.21;55.31;99034.25;3325719;29;20658;-75
2021/08/02 06:14:35;;;;;;;12.27;9.33;;;;;;;27.30;55.01;99037.81;3326087;29;20055;-73
2021/08/02 06:16:20;;;;;;;11.20;8.57;;;;;;;27.37;54.80;99036.22;3337992;29;20091;-73
2021/08/02 06:18:01;;;;;;;11.90;8.63;;;;;;;27.48;54.37;99036.69;3328270;29;20038;-73
2021/08/02 06:19:43;;;;;;;13.32;8.35;;;;;;;27.58;54.64;99030.09;3326104;29;20521;-73
2021/08/02 06:21:24;;;;;;;9.43;8.30;;;;;;;27.69;54.27;99030.56;3326416;29;20859;-74
2021/08/02 06:23:05;;;;;;;10.67;8.13;;;;;;;27.80;54.18;99018.94;3326505;29;20534;-74
2021/08/02 06:24:46;;;;;;;10.03;7.70;;;;;;;27.91;54.02;99029.59;3326468;29;20056;-73
2021/08/02 06:26:27;;;;;;;12.10;8.48;;;;;;;28.05;53.51;99028.25;3326328;29;20042;-74
2021/08/02 06:28:07;;;;;;;12.53;8.17;;;;;;;28.21;53.17;99023.03;3326151;29;20049;-73
2021/08/02 06:29:48;;;;;;;10.03;7.70;;;;;;;28.39;52.90;99017.47;3326442;29;20099;-73
2021/08/02 06:31:29;;;;;;;15.43;8.37;;;;;;;28.43;52.63;99013.75;3326408;29;20146;-73
2021/08/02 06:33:10;;;;;;;10.83;8.33;;;;;;;28.59;52.49;99016.75;3326025;29;20042;-73
2021/08/02 06:34:50;;;;;;;9.03;7.93;;;;;;;28.75;52.08;99018.94;3326043;29;20326;-73
2021/08/02 06:36:31;;;;;;;13.37;9.00;;;;;;;28.90;51.73;99021.91;3326245;29;20529;-74
2021/08/02 06:38:12;;;;;;;12.13;7.72;;;;;;;29.04;51.59;99018.09;3325979;29;20054;-73
2021/08/02 06:39:53;;;;;;;10.95;8.30;;;;;;;29.08;51.30;99011.63;3326473;29;20053;-73
2021/08/02 06:41:34;;;;;;;10.65;7.70;;;;;;;29.11;51.35;99010.97;3325706;29;20070;-72
2021/08/02 06:43:14;;;;;;;9.47;7.73;;;;;;;29.08;51.31;99017.13;3326628;29;20061;-73
2021/08/02 06:44:55;;;;;;;12.67;8.17;;;;;;;29.05;51.45;99012.31;3326155;29;20061;-74
2021/08/02 06:46:36;;;;;;;9.37;8.37;;;;;;;29.00;51.24;99012.47;3325965;29;20095;-73
2021/08/02 06:48:16;;;;;;;8.60;7.80;;;;;;;28.99;51.29;99016.38;3326225;29;20046;-74
2021/08/02 06:49:57;;;;;;;11.87;7.87;;;;;;;28.95;51.54;99020.91;3326034;29;20062;-74
2021/08/02 06:51:38;;;;;;;9.53;7.80;;;;;;;28.89;51.50;99022.25;3325757;29;20107;-74
2021/08/02 06:53:18;;;;;;;12.27;8.47;;;;;;;28.85;51.45;99029.53;3324826;29;20292;-73
2021/08/02 06:55:00;;;;;;;11.43;7.70;;;;;;;28.79;51.48;99025.38;3335090;29;20045;-74
2021/08/02 06:56:42;;;;;;;8.23;7.47;;;;;;;28.77;51.50;99028.44;3328033;29;20088;-74
2021/08/02 06:58:22;;;;;;;;;;;;;;;28.83;51.49;99031.78;3326533;29;20538;-72
2021/08/02 07:00:04;;;;;;;7.82;7.03;;;;;;;28.76;51.75;99026.84;3325978;29;19980;-72
2021/08/02 07:01:45;;;;;;;;;;;;;;;28.78;51.94;99023.75;3326206;29;20050;-73
2021/08/02 07:03:25;;;;;;;9.48;8.00;;;;;;;28.65;51.83;99026.41;3325850;29;19924;-73
2021/08/02 07:05:07;;;;;;;8.37;7.57;;;;;;;28.54;52.25;99022.44;3325772;29;20491;-72
2021/08/02 07:06:47;;;;;;;8.70;7.80;;;;;;;28.49;52.13;99025.34;3325928;29;20102;-71
2021/08/02 07:08:28;;;;;;;9.83;7.83;;;;;;;28.40;52.25;99024.59;3325764;29;20471;-73
2021/08/02 07:10:09;;;;;;;10.37;7.63;;;;;;;28.26;52.14;99031.06;3325683;29;20043;-73
2021/08/02 07:11:50;;;;;;;9.68;7.72;;;;;;;28.15;52.59;99040.00;3325870;29;20459;-74
2021/08/02 07:13:30;;;;;;;11.03;8.10;;;;;;;28.05;53.13;99035.66;3325819;29;20077;-73
2021/08/02 07:15:11;;;;;;;10.13;7.70;;;;;;;27.98;52.90;99035.34;3325846;29;20073;-73
2021/08/02 07:16:52;;;;;;;12.13;8.17;;;;;;;27.90;53.00;99038.91;3325749;29;20066;-73
2021/08/02 07:18:34;;;;;;;11.23;7.53;;;;;;;27.82;53.46;99030.38;3325765;29;20107;-72
2021/08/02 07:20:14;;;;;;;;;;;;;;;27.86;53.21;99032.50;3325806;29;20587;-73
2021/08/02 07:21:55;;;;;;;11.38;7.93;;;;;;;27.70;53.56;99027.50;3325633;29;19965;-73
2021/08/02 07:23:37;;;;;;;12.17;8.43;;;;;;;27.60;53.86;99027.84;3325547;29;20077;-74
2021/08/02 07:25:18;;;;;;;25.13;8.90;;;;;;;27.53;54.01;99030.25;3325539;29;20082;-73
2021/08/02 07:26:58;;;;;;;8.88;7.97;;;;;;;27.46;54.16;99024.47;3325497;29;20054;-73
2021/08/02 07:28:39;;;;;;;9.00;8.13;;;;;;;27.37;54.91;99013.53;3325627;29;20050;-73
2021/08/02 07:30:20;;;;;;;11.33;7.77;;;;;;;27.31;54.57;99018.34;3325665;29;20038;-72
2021/08/02 07:32:00;;;;;;;10.30;7.90;;;;;;;27.23;55.21;99021.88;3325850;29;20054;-72
2021/08/02 07:33:42;;;;;;;12.33;8.47;;;;;;;27.17;55.52;99032.19;3325570;29;20057;-73
2021/08/02 07:35:23;;;;;;;10.57;8.18;;;;;;;27.13;55.51;99033.94;3325788;29;20050;-73
2021/08/02 07:37:04;;;;;;;12.03;8.90;;;;;;;27.06;55.64;99041.81;3325672;29;20514;-73
2021/08/02 07:38:44;;;;;;;8.70;7.75;;;;;;;27.00;55.87;99029.38;3324864;29;20046;-72
2021/08/02 07:40:26;;;;;;;10.10;8.93;;;;;;;26.93;56.43;99027.13;3325423;29;20106;-73
2021/08/02 07:42:06;;;;;;;11.00;8.02;;;;;;;26.90;56.63;99026.97;3326352;29;20074;-73
2021/08/02 07:43:47;;;;;;;26.50;9.93;;;;;;;26.85;57.03;99025.19;3326425;29;20094;-74
2021/08/02 07:45:27;;;;;;;11.53;9.43;;;;;;;26.79;57.15;99031.94;3325627;29;20050;-73
2021/08/02 07:47:08;;;;;;;10.13;9.10;;;;;;;26.70;58.07;99037.38;3325540;29;20053;-72
2021/08/02 07:48:52;;;;;;;10.70;9.20;;;;;;;26.63;58.03;99025.31;3325761;29;21108;-74
2021/08/02 07:50:32;;;;;;;14.05;9.40;;;;;;;26.55;58.33;99018.69;3325574;29;20085;-72
2021/08/02 07:52:13;;;;;;;12.40;9.10;;;;;;;26.47;58.92;99014.78;3324944;29;20050;-73
2021/08/02 07:53:55;;;;;;;11.20;9.03;;;;;;;26.41;59.59;99013.31;3324051;29;20039;-73
2021/08/02 07:55:36;;;;;;;11.13;9.35;;;;;;;26.33;59.71;99009.44;3324941;29;20050;-72
2021/08/02 07:57:16;;;;;;;19.83;10.67;;;;;;;26.25;60.30;99012.09;3336737;29;20514;-72
2021/08/02 07:58:57;;;;;;;11.43;10.27;;;;;;;26.19;60.47;99007.91;3327657;29;20058;-73
2021/08/02 08:00:38;;;;;;;14.13;9.83;;;;;;;26.15;61.13;99021.41;3325030;29;20438;-72
2021/08/02 08:02:19;;;;;;;15.93;9.87;;;;;;;26.05;61.32;99010.75;3325189;29;20050;-73
2021/08/02 08:03:59;;;;;;;14.03;10.17;;;;;;;26.02;61.42;99011.34;3325275;29;20058;-74